Keewaydin — ZCFL7 — position and weather

sailwx.info

Track history (hours):
 
Tides and Currents Weather Stations Pressure Air Temp Water Temp Dewpoint Dewpoint Depression Visibility Wind Speed Wind Dir Waves Ship Positions

Keewaydin

Last reported at 2017-Apr-25 16:05 UTC. Time now 2017-Apr-27 16:40 UTC.
Position N 39°34' E 002°39'.

Length 34 m; draft 2.7 m.

MMSI: 319536000.

Date/timePositionNaut miles runAvg speedWind from/ knotsBaromVisibWave heightAir tempDewpointWater temp
2017-Apr-25 16:05N 39°34' E 002°39'0 0.0
2017-Apr-25 15:56N 39°34' E 002°39'0 0.0
2017-Apr-25 15:29N 39°34' E 002°39'0 0.0
2017-Apr-25 14:59N 39°34' E 002°39'0 0.0
2017-Apr-25 14:00N 39°34' E 002°39'0 0.0
2017-Apr-25 13:30N 39°34' E 002°39'3 5.5
2017-Apr-25 13:00N 39°32' E 002°37'510.2
2017-Apr-25 12:30N 39°28' E 002°32'4 8.5
2017-Apr-25 12:00N 39°28' E 002°27'6 9.5
2017-Apr-25 11:24N 39°32' E 002°21'4 9.1
2017-Apr-25 10:56N 39°36' E 002°21'4 9.4
2017-Apr-25 10:30N 39°40' E 002°21'5 9.0
2017-Apr-25 10:00N 39°45' E 002°21'4 9.0
2017-Apr-25 09:30N 39°49' E 002°20'4 9.0
2017-Apr-25 09:00N 39°54' E 002°20'4 8.9
2017-Apr-25 08:30N 39°58' E 002°20'4 8.7
2017-Apr-25 08:00N 40°03' E 002°20'4 8.9
2017-Apr-25 07:30N 40°07' E 002°20'4 8.9
2017-Apr-25 07:00N 40°12' E 002°20'5 9.1
2017-Apr-25 06:30N 40°16' E 002°20'5 9.1
2017-Apr-25 06:00N 40°21' E 002°20'5 9.4
2017-Apr-25 05:30N 40°25' E 002°21'5 9.5
2017-Apr-25 05:00N 40°30' E 002°21'5 9.5
2017-Apr-25 04:30N 40°35' E 002°20'5 9.5
2017-Apr-25 04:00N 40°40' E 002°19'5 9.6
2017-Apr-25 03:30N 40°44' E 002°19'5 9.5
2017-Apr-25 03:00N 40°49' E 002°19'5 9.4
2017-Apr-25 02:30N 40°54' E 002°19'5 9.5
2017-Apr-25 02:00N 40°59' E 002°19'5 9.6
2017-Apr-25 01:30N 41°03' E 002°18'5 9.7
2017-Apr-25 01:00N 41°08' E 002°18'5 9.7
2017-Apr-25 00:30N 41°13' E 002°17'5 9.4
2017-Apr-24 23:59N 41°18' E 002°16'5 9.3
2017-Apr-24 23:29N 41°22' E 002°15'4 7.7
2017-Apr-24 23:00N 41°26' E 002°15'  
2017-Apr-22 13:18N 41°26' E 002°15'1 2.1
2017-Apr-22 13:00N 41°26' E 002°15'5 8.4
2017-Apr-22 12:24N 41°28' E 002°22'  
Track history (hours):
 
Tides and Currents Weather Stations Pressure Air Temp Water Temp Dewpoint Dewpoint Depression Visibility Wind Speed Wind Dir Waves Ship Positions

Keewaydin

Last reported at 2017-Apr-25 16:05 UTC. Time now 2017-Apr-27 16:40 UTC.
Position N 39°34' E 002°39'.

Length 34 m; draft 2.7 m.

MMSI: 319536000.

Date/timePositionNaut miles runAvg speedWind from/ knotsBaromVisibWave heightAir tempDewpointWater temp
2017-Apr-25 16:05N 39°34' E 002°39'0 0.0
2017-Apr-25 15:56N 39°34' E 002°39'0 0.0
2017-Apr-25 15:29N 39°34' E 002°39'0 0.0
2017-Apr-25 14:59N 39°34' E 002°39'0 0.0
2017-Apr-25 14:00N 39°34' E 002°39'0 0.0
2017-Apr-25 13:30N 39°34' E 002°39'3 5.5
2017-Apr-25 13:00N 39°32' E 002°37'510.2
2017-Apr-25 12:30N 39°28' E 002°32'4 8.5
2017-Apr-25 12:00N 39°28' E 002°27'6 9.5
2017-Apr-25 11:24N 39°32' E 002°21'4 9.1
2017-Apr-25 10:56N 39°36' E 002°21'4 9.4
2017-Apr-25 10:30N 39°40' E 002°21'5 9.0
2017-Apr-25 10:00N 39°45' E 002°21'4 9.0
2017-Apr-25 09:30N 39°49' E 002°20'4 9.0
2017-Apr-25 09:00N 39°54' E 002°20'4 8.9
2017-Apr-25 08:30N 39°58' E 002°20'4 8.7
2017-Apr-25 08:00N 40°03' E 002°20'4 8.9
2017-Apr-25 07:30N 40°07' E 002°20'4 8.9
2017-Apr-25 07:00N 40°12' E 002°20'5 9.1
2017-Apr-25 06:30N 40°16' E 002°20'5 9.1
2017-Apr-25 06:00N 40°21' E 002°20'5 9.4
2017-Apr-25 05:30N 40°25' E 002°21'5 9.5
2017-Apr-25 05:00N 40°30' E 002°21'5 9.5
2017-Apr-25 04:30N 40°35' E 002°20'5 9.5
2017-Apr-25 04:00N 40°40' E 002°19'5 9.6
2017-Apr-25 03:30N 40°44' E 002°19'5 9.5
2017-Apr-25 03:00N 40°49' E 002°19'5 9.4
2017-Apr-25 02:30N 40°54' E 002°19'5 9.5
2017-Apr-25 02:00N 40°59' E 002°19'5 9.6
2017-Apr-25 01:30N 41°03' E 002°18'5 9.7
2017-Apr-25 01:00N 41°08' E 002°18'5 9.7
2017-Apr-25 00:30N 41°13' E 002°17'5 9.4
2017-Apr-24 23:59N 41°18' E 002°16'5 9.3
2017-Apr-24 23:29N 41°22' E 002°15'4 7.7
2017-Apr-24 23:00N 41°26' E 002°15'  
2017-Apr-22 13:18N 41°26' E 002°15'1 2.1
2017-Apr-22 13:00N 41°26' E 002°15'5 8.4
2017-Apr-22 12:24N 41°28' E 002°22'  

Dump ship's entire track history